createdAt,value
2019-04-07T00:02:09.232Z,86.01
2019-04-07T00:07:15.098Z,86.25
2019-04-07T00:12:20.352Z,86.22
2019-04-07T00:17:26.151Z,86.29
2019-04-07T00:22:31.474Z,86.30
2019-04-07T00:27:36.896Z,86.24
2019-04-07T00:32:42.785Z,86.03
2019-04-07T00:37:48.306Z,86.09
2019-04-07T00:42:53.553Z,85.61
2019-04-07T00:47:59.366Z,84.87
2019-04-07T00:53:05.445Z,85.08
2019-04-07T00:58:11.550Z,85.78
2019-04-07T01:03:18.263Z,86.31
2019-04-07T01:08:23.792Z,86.63
2019-04-07T01:13:29.705Z,87.06
2019-04-07T01:18:35.618Z,87.65
2019-04-07T01:23:41.489Z,88.00
2019-04-07T01:28:47.113Z,88.23
2019-04-07T01:33:53.132Z,88.48
2019-04-07T01:38:58.754Z,88.63
2019-04-07T01:44:10.185Z,88.49
2019-04-07T01:49:22.254Z,88.30
2019-04-07T01:54:38.423Z,88.20
2019-04-07T01:59:52.100Z,88.10
2019-04-07T02:05:05.551Z,88.13
2019-04-07T02:10:19.647Z,88.30
2019-04-07T02:15:31.864Z,88.35
2019-04-07T02:20:49.902Z,88.70
2019-04-07T02:26:03.585Z,89.15
2019-04-07T02:31:19.289Z,89.61
2019-04-07T02:36:32.213Z,90.07
2019-04-07T02:41:46.687Z,90.55
2019-04-07T02:46:58.821Z,90.92
2019-04-07T02:52:12.559Z,91.35
2019-04-07T02:57:24.757Z,91.76
2019-04-07T03:02:37.677Z,92.09
2019-04-07T03:07:50.355Z,92.53
2019-04-07T03:13:04.980Z,93.08
2019-04-07T03:18:20.174Z,93.39
2019-04-07T03:23:35.019Z,93.72
2019-04-07T03:28:50.244Z,93.73
2019-04-07T03:34:06.190Z,93.89
2019-04-07T03:39:20.663Z,93.89
2019-04-07T03:44:33.095Z,94.27
2019-04-07T03:49:46.222Z,94.27
2019-04-07T03:55:01.221Z,94.51
2019-04-07T04:00:21.934Z,94.61
2019-04-07T04:05:46.109Z,94.82
2019-04-07T04:11:00.485Z,94.98
2019-04-07T04:16:10.584Z,94.98
2019-04-07T04:21:16.414Z,94.98
2019-04-07T04:26:21.818Z,94.90
2019-04-07T04:31:27.392Z,94.95
2019-04-07T04:36:33.495Z,94.97
2019-04-07T04:41:38.846Z,94.95
2019-04-07T04:46:44.125Z,95.08
2019-04-07T04:51:50.124Z,94.89
2019-04-07T04:56:55.533Z,94.71
2019-04-07T05:02:01.136Z,94.52
2019-04-07T05:07:06.615Z,94.51
2019-04-07T05:12:11.875Z,94.08
2019-04-07T05:17:17.373Z,94.03
2019-04-07T05:22:23.426Z,93.84
2019-04-07T05:27:29.339Z,93.55
2019-04-07T05:32:34.543Z,93.60
2019-04-07T05:37:40.569Z,93.56
2019-04-07T05:42:46.528Z,93.54
2019-04-07T05:47:53.344Z,93.61
2019-04-07T05:52:58.800Z,93.52
2019-04-07T05:58:07.019Z,93.45
2019-04-07T06:03:11.234Z,93.36
2019-04-07T06:08:24.650Z,93.42
2019-04-07T06:13:23.743Z,93.19
2019-04-07T06:18:32.637Z,93.24
2019-04-07T06:23:36.417Z,93.20
2019-04-07T06:28:41.993Z,93.19
2019-04-07T06:33:47.213Z,93.12
2019-04-07T06:38:53.682Z,92.89
2019-04-07T06:44:09.872Z,92.99
2019-04-07T06:49:15.072Z,92.75
2019-04-07T06:54:29.820Z,92.53
2019-04-07T06:59:47.141Z,92.30
2019-04-07T07:04:59.355Z,92.09
2019-04-07T07:10:28.714Z,91.94
2019-04-07T07:15:50.075Z,91.97
2019-04-07T07:21:03.738Z,91.91
2019-04-07T07:26:09.828Z,92.06
2019-04-07T07:31:16.653Z,92.11
2019-04-07T07:36:23.987Z,91.89
2019-04-07T07:41:29.427Z,91.83
2019-04-07T07:46:34.790Z,91.70
2019-04-07T07:51:45.121Z,91.51
2019-04-07T07:56:50.488Z,91.15
2019-04-07T08:01:55.567Z,90.79
2019-04-07T08:07:02.567Z,90.74
2019-04-07T08:12:08.367Z,90.72
2019-04-07T08:17:15.958Z,90.58
2019-04-07T08:22:29.950Z,90.71
2019-04-07T08:27:31.052Z,90.77
2019-04-07T08:32:37.670Z,91.15
2019-04-07T08:37:45.792Z,90.14
2019-04-07T08:42:50.224Z,89.54
2019-04-07T08:47:56.290Z,88.13
2019-04-07T08:53:10.495Z,88.11
2019-04-07T08:58:24.887Z,87.16
2019-04-07T09:03:21.973Z,87.18
2019-04-07T09:08:27.429Z,83.14
2019-04-07T09:13:34.178Z,80.01
2019-04-07T09:18:55.142Z,74.88
2019-04-07T09:24:13.805Z,74.65
2019-04-07T09:29:29.237Z,73.03
2019-04-07T09:34:42.964Z,74.47
2019-04-07T09:40:02.212Z,72.43
2019-04-07T09:45:15.984Z,75.11
2019-04-07T09:50:36.415Z,70.35
2019-04-07T09:55:50.535Z,73.27
2019-04-07T10:01:07.970Z,76.02
2019-04-07T10:06:21.984Z,77.77
2019-04-07T10:11:36.217Z,79.68
2019-04-07T10:16:50.706Z,81.42
2019-04-07T10:22:14.989Z,82.05
2019-04-07T10:27:39.698Z,83.41
2019-04-07T10:32:57.439Z,84.44
2019-04-07T10:38:15.362Z,84.66
2019-04-07T10:43:31.350Z,84.40
2019-04-07T10:48:51.089Z,85.21
2019-04-07T10:54:05.769Z,85.95
2019-04-07T10:59:30.880Z,85.29
2019-04-07T11:04:49.590Z,85.74
2019-04-07T11:10:06.666Z,85.67
2019-04-07T11:15:20.942Z,85.88
2019-04-07T11:20:35.202Z,85.63
2019-04-07T11:25:47.870Z,84.71
2019-04-07T11:31:12.262Z,82.68
2019-04-07T11:36:26.089Z,80.93
2019-04-07T11:41:40.274Z,78.78
2019-04-07T11:46:58.122Z,77.39
2019-04-07T11:52:09.286Z,77.01
2019-04-07T11:57:21.583Z,76.99
2019-04-07T12:02:36.376Z,78.03
2019-04-07T12:07:53.918Z,78.73
2019-04-07T12:13:04.802Z,79.74
2019-04-07T12:18:20.232Z,80.40
2019-04-07T12:23:34.033Z,80.17
2019-04-07T12:28:51.443Z,79.44
2019-04-07T12:34:12.021Z,80.11
2019-04-07T12:39:23.110Z,81.22
2019-04-07T12:44:37.393Z,82.52
2019-04-07T12:49:56.159Z,81.90
2019-04-07T12:55:15.389Z,81.50
2019-04-07T13:00:27.629Z,80.73
2019-04-07T13:05:41.186Z,79.78
2019-04-07T13:11:09.495Z,79.40
2019-04-07T13:16:25.082Z,80.25
2019-04-07T13:21:34.046Z,80.21
2019-04-07T13:26:48.789Z,80.84
2019-04-07T13:32:03.362Z,80.71
2019-04-07T13:37:17.303Z,81.57
2019-04-07T13:42:37.892Z,82.08
2019-04-07T13:47:52.460Z,81.90
2019-04-07T13:53:06.713Z,83.57
2019-04-07T13:58:20.850Z,84.83
2019-04-07T14:03:44.884Z,84.72
2019-04-07T14:09:01.410Z,84.90
2019-04-07T14:14:15.740Z,86.41
2019-04-07T14:19:35.355Z,86.94
2019-04-07T14:24:47.146Z,87.47
2019-04-07T14:30:00.406Z,87.64
2019-04-07T14:35:22.619Z,88.46
2019-04-07T14:40:36.664Z,88.83
2019-04-07T14:45:54.077Z,89.55
2019-04-07T14:51:18.223Z,91.03
2019-04-07T14:56:35.694Z,91.85
2019-04-07T15:01:51.320Z,92.52
2019-04-07T15:07:12.284Z,93.46
2019-04-07T15:12:25.051Z,94.37
2019-04-07T15:17:29.943Z,94.91
2019-04-07T15:22:35.734Z,95.28
2019-04-07T15:27:40.991Z,95.13
2019-04-07T15:32:46.387Z,94.95
2019-04-07T15:37:52.464Z,95.21
2019-04-07T15:43:01.486Z,96.02
2019-04-07T15:48:05.125Z,95.33
2019-04-07T15:53:13.519Z,96.39
2019-04-07T15:58:17.458Z,95.20
2019-04-07T16:03:22.923Z,93.67
2019-04-07T16:08:30.560Z,93.93
2019-04-07T16:13:35.881Z,93.28
2019-04-07T16:18:43.415Z,91.98
2019-04-07T16:23:51.886Z,91.90
2019-04-07T16:28:56.245Z,88.60
2019-04-07T16:34:05.730Z,90.13
2019-04-07T16:39:09.846Z,90.65
2019-04-07T16:44:15.905Z,91.05
2019-04-07T16:49:21.660Z,91.30
2019-04-07T16:54:27.218Z,91.60
2019-04-07T16:59:32.798Z,91.54
2019-04-07T17:04:38.513Z,91.26
2019-04-07T17:09:44.681Z,90.39
2019-04-07T17:14:52.132Z,90.68
2019-04-07T17:19:59.488Z,91.33
2019-04-07T17:25:08.647Z,91.75
2019-04-07T17:30:14.923Z,89.74
2019-04-07T17:35:24.465Z,89.61
2019-04-07T17:40:33.198Z,90.53
2019-04-07T17:45:47.908Z,91.18
2019-04-07T17:51:12.102Z,92.26
2019-04-07T17:56:29.908Z,92.34
2019-04-07T18:01:44.327Z,92.20
2019-04-07T18:07:01.946Z,92.28
2019-04-07T18:12:14.556Z,92.26
2019-04-07T18:17:28.017Z,92.75
2019-04-07T18:22:46.024Z,93.16
2019-04-07T18:28:07.024Z,93.32
2019-04-07T18:33:22.884Z,94.25
2019-04-07T18:38:48.417Z,95.04
2019-04-07T18:44:05.624Z,95.36
2019-04-07T18:49:17.021Z,96.04
2019-04-07T18:54:32.370Z,96.65
2019-04-07T18:59:47.407Z,97.23
2019-04-07T19:05:01.702Z,97.87
2019-04-07T19:10:21.361Z,98.20
2019-04-07T19:15:30.678Z,98.54
2019-04-07T19:20:44.023Z,98.87
2019-04-07T19:32:25.906Z,99.62
2019-04-07T19:37:40.683Z,100.00
2019-04-07T19:42:52.431Z,100.00
2019-04-07T19:48:10.084Z,100.00
2019-04-07T19:53:27.400Z,100.00
2019-04-07T19:58:41.039Z,100.00
2019-04-07T20:03:56.663Z,100.00
2019-04-07T20:09:12.258Z,100.00
2019-04-07T20:14:31.462Z,100.00
2019-04-07T20:19:45.014Z,100.00
2019-04-07T20:25:13.251Z,100.00
2019-04-07T20:30:23.329Z,100.00
2019-04-07T20:35:37.221Z,100.00
2019-04-07T20:40:56.060Z,100.00
2019-04-07T20:46:13.283Z,100.00
2019-04-07T20:51:26.462Z,100.00
2019-04-07T20:56:43.675Z,100.00
2019-04-07T21:02:03.145Z,100.00
2019-04-07T21:07:11.932Z,100.00
2019-04-07T21:12:23.505Z,100.00
2019-04-07T21:17:37.585Z,100.00
2019-04-07T21:22:49.739Z,100.00
2019-04-07T21:28:06.090Z,100.00
2019-04-07T21:33:23.771Z,100.00
2019-04-07T21:38:34.974Z,100.00
2019-04-07T21:43:48.857Z,100.00
2019-04-07T21:49:05.838Z,100.00
2019-04-07T21:54:20.058Z,100.00
2019-04-07T21:59:33.957Z,100.00
2019-04-07T22:04:50.638Z,100.00
2019-04-07T22:09:58.917Z,100.00
2019-04-07T22:15:06.522Z,100.00
2019-04-07T22:20:17.740Z,100.00
2019-04-07T22:25:29.131Z,100.00
2019-04-07T22:30:39.253Z,100.00
2019-04-07T22:35:43.977Z,100.00
2019-04-07T22:40:48.697Z,100.00
2019-04-07T22:46:04.205Z,100.00
2019-04-07T22:51:02.869Z,100.00
2019-04-07T22:56:09.063Z,100.00
2019-04-07T23:01:14.839Z,100.00
2019-04-07T23:06:21.028Z,100.00
2019-04-07T23:11:26.369Z,100.00
2019-04-07T23:16:31.710Z,100.00
2019-04-07T23:21:37.476Z,100.00
2019-04-07T23:26:42.763Z,100.00
2019-04-07T23:31:48.018Z,100.00
2019-04-07T23:36:54.069Z,100.00
2019-04-07T23:41:59.419Z,100.00
2019-04-07T23:47:04.817Z,100.00
2019-04-07T23:52:11.048Z,100.00
2019-04-07T23:57:16.502Z,100.00
